createdAt,value
2018-02-19T00:00:24.166Z,10.82
2018-02-19T00:00:58.075Z,10.75
2018-02-19T00:01:32.056Z,9.20
2018-02-19T00:02:05.960Z,9.10
2018-02-19T00:02:39.846Z,8.98
2018-02-19T00:03:13.769Z,10.48
2018-02-19T00:03:47.838Z,10.30
2018-02-19T00:04:21.723Z,9.90
2018-02-19T00:04:55.614Z,9.82
2018-02-19T00:05:29.538Z,9.93
2018-02-19T00:06:03.390Z,10.98
2018-02-19T00:06:37.248Z,9.65
2018-02-19T00:07:11.209Z,9.55
2018-02-19T00:07:45.160Z,9.75
2018-02-19T00:08:19.092Z,10.00
2018-02-19T00:08:53.116Z,9.15
2018-02-19T00:09:27.010Z,9.02
2018-02-19T00:10:00.904Z,10.95
2018-02-19T00:10:34.851Z,10.23
2018-02-19T00:11:08.712Z,9.85
2018-02-19T00:11:42.585Z,9.85
2018-02-19T00:12:16.560Z,10.20
2018-02-19T00:12:50.473Z,9.55
2018-02-19T00:13:24.366Z,9.65
2018-02-19T00:13:58.261Z,10.02
2018-02-19T00:14:32.135Z,9.45
2018-02-19T00:15:06.003Z,9.73
2018-02-19T00:15:39.953Z,10.27
2018-02-19T00:16:13.817Z,9.20
2018-02-19T00:16:47.691Z,9.95
2018-02-19T00:17:21.628Z,9.60
2018-02-19T00:17:55.504Z,8.95
2018-02-19T00:18:29.441Z,9.80
2018-02-19T00:19:03.370Z,9.38
2018-02-19T00:19:37.233Z,8.30
2018-02-19T00:20:11.230Z,8.80
2018-02-19T00:20:45.093Z,9.15
2018-02-19T00:21:19.137Z,9.05
2018-02-19T00:21:53.271Z,9.55
2018-02-19T00:22:27.326Z,8.00
2018-02-19T00:23:01.499Z,8.30
2018-02-19T00:23:35.407Z,8.75
2018-02-19T00:24:09.327Z,9.18
2018-02-19T00:24:43.203Z,9.30
2018-02-19T00:25:17.194Z,10.25
2018-02-19T00:25:51.066Z,9.40
2018-02-19T00:26:24.921Z,7.70
2018-02-19T00:26:58.868Z,8.95
2018-02-19T00:27:32.744Z,8.70
2018-02-19T00:28:06.863Z,9.40
2018-02-19T00:28:41.061Z,8.75
2018-02-19T00:29:14.953Z,9.07
2018-02-19T00:29:48.830Z,8.80
2018-02-19T00:30:22.707Z,9.38
2018-02-19T00:30:56.680Z,8.63
2018-02-19T00:31:30.525Z,8.93
2018-02-19T00:32:04.820Z,9.40
2018-02-19T00:32:38.772Z,10.13
2018-02-19T00:33:12.675Z,9.48
2018-02-19T00:33:46.629Z,8.95
2018-02-19T00:34:20.743Z,8.52
2018-02-19T00:34:54.738Z,9.07
2018-02-19T00:35:28.596Z,8.73
2018-02-19T00:36:02.692Z,9.52
2018-02-19T00:36:36.739Z,8.82
2018-02-19T00:37:10.615Z,7.82
2018-02-19T00:37:44.518Z,8.95
2018-02-19T00:38:18.389Z,9.23
2018-02-19T00:38:52.284Z,9.45
2018-02-19T00:39:26.271Z,9.35
2018-02-19T00:40:00.154Z,9.75
2018-02-19T00:40:34.098Z,9.18
2018-02-19T00:41:08.142Z,8.20
2018-02-19T00:41:42.017Z,9.65
2018-02-19T00:42:15.874Z,8.82
2018-02-19T00:42:49.736Z,9.13
2018-02-19T00:43:23.841Z,9.13
2018-02-19T00:43:57.753Z,10.57
2018-02-19T00:44:31.632Z,9.80
2018-02-19T00:45:05.516Z,8.77
2018-02-19T00:45:39.472Z,8.63
2018-02-19T00:46:13.378Z,9.30
2018-02-19T00:46:47.271Z,8.85
2018-02-19T00:47:21.468Z,9.88
2018-02-19T00:47:55.383Z,9.05
2018-02-19T00:48:29.551Z,9.90
2018-02-19T00:49:03.463Z,9.23
2018-02-19T00:49:37.518Z,8.85
2018-02-19T00:50:11.382Z,9.30
2018-02-19T00:50:45.276Z,10.10
2018-02-19T00:51:19.171Z,9.57
2018-02-19T00:51:53.071Z,9.18
2018-02-19T00:52:27.099Z,9.68
2018-02-19T00:53:00.988Z,11.63
2018-02-19T00:53:34.859Z,10.23
2018-02-19T00:54:08.934Z,9.73
2018-02-19T00:54:43.117Z,9.05
2018-02-19T00:55:17.054Z,9.07
2018-02-19T00:55:51.317Z,9.40
2018-02-19T00:56:25.310Z,10.30
2018-02-19T00:56:59.165Z,9.75
2018-02-19T00:57:33.041Z,10.13
2018-02-19T00:58:07.162Z,8.57
2018-02-19T00:58:41.138Z,8.90
2018-02-19T00:59:15.300Z,8.98
2018-02-19T00:59:49.152Z,9.20
2018-02-19T01:00:23.089Z,9.35
2018-02-19T01:00:57.007Z,9.68
2018-02-19T01:01:30.985Z,9.68
2018-02-19T01:02:04.850Z,9.18
2018-02-19T01:02:38.724Z,9.70
2018-02-19T01:03:12.693Z,9.90
2018-02-19T01:03:46.605Z,9.32
2018-02-19T01:04:20.668Z,9.15
2018-02-19T01:04:54.576Z,9.25
2018-02-19T01:05:28.450Z,9.70
2018-02-19T01:06:02.350Z,9.00
2018-02-19T01:06:36.381Z,9.27
2018-02-19T01:07:10.275Z,9.98
2018-02-19T01:07:44.305Z,10.43
2018-02-19T01:08:18.343Z,9.30
2018-02-19T01:08:52.241Z,10.07
2018-02-19T01:09:26.160Z,10.60
2018-02-19T01:10:00.033Z,9.32
2018-02-19T01:10:33.894Z,9.40
2018-02-19T01:11:07.761Z,9.07
2018-02-19T01:11:41.638Z,10.07
2018-02-19T01:12:15.948Z,9.88
2018-02-19T01:12:49.849Z,10.20
2018-02-19T01:13:23.843Z,9.45
2018-02-19T01:13:57.707Z,9.32
2018-02-19T01:14:31.673Z,9.40
2018-02-19T01:15:05.773Z,8.70
2018-02-19T01:15:39.629Z,10.05
2018-02-19T01:16:13.490Z,10.40
2018-02-19T01:16:47.365Z,8.70
2018-02-19T01:17:21.248Z,9.90
2018-02-19T01:17:55.131Z,9.45
2018-02-19T01:18:29.298Z,8.85
2018-02-19T01:19:03.167Z,9.80
2018-02-19T01:19:37.188Z,9.95
2018-02-19T01:20:11.057Z,9.23
2018-02-19T01:20:44.990Z,9.85
2018-02-19T01:21:18.887Z,10.05
2018-02-19T01:21:52.740Z,10.82
2018-02-19T01:22:26.659Z,9.20
2018-02-19T01:23:00.614Z,9.48
2018-02-19T01:23:34.509Z,10.02
2018-02-19T01:24:08.374Z,9.85
2018-02-19T01:24:42.473Z,9.00
2018-02-19T01:25:16.410Z,8.32
2018-02-19T01:25:50.309Z,8.77
2018-02-19T01:26:24.182Z,9.50
2018-02-19T01:26:58.165Z,9.20
2018-02-19T01:27:32.033Z,9.43
2018-02-19T01:28:05.924Z,9.52
2018-02-19T01:28:39.785Z,9.75
2018-02-19T01:29:14.028Z,9.90
2018-02-19T01:29:47.893Z,8.75
2018-02-19T01:30:21.810Z,10.50
2018-02-19T01:30:56.006Z,10.27
2018-02-19T01:31:30.011Z,10.30
2018-02-19T01:32:04.189Z,10.15
2018-02-19T01:32:38.228Z,10.93
2018-02-19T01:33:12.121Z,11.25
2018-02-19T01:33:46.005Z,10.48
2018-02-19T01:34:19.988Z,10.13
2018-02-19T01:34:53.902Z,10.13
2018-02-19T01:35:27.799Z,9.95
2018-02-19T01:36:01.676Z,9.68
2018-02-19T01:36:35.577Z,10.55
2018-02-19T01:37:09.460Z,10.43
2018-02-19T01:37:43.365Z,9.80
2018-02-19T01:38:17.364Z,9.25
2018-02-19T01:38:51.240Z,10.68
2018-02-19T01:39:25.335Z,9.77
2018-02-19T01:39:59.305Z,10.02
2018-02-19T01:40:33.206Z,10.20
2018-02-19T01:41:07.065Z,9.52
2018-02-19T01:41:40.929Z,8.90
2018-02-19T01:42:14.868Z,9.68
2018-02-19T01:42:48.819Z,9.27
2018-02-19T01:43:22.715Z,10.43
2018-02-19T01:43:56.698Z,8.98
2018-02-19T01:44:30.627Z,9.02
2018-02-19T01:45:04.570Z,9.85
2018-02-19T01:45:38.420Z,9.40
2018-02-19T01:46:12.316Z,10.38
2018-02-19T01:46:46.185Z,10.35
2018-02-19T01:47:20.217Z,9.50
2018-02-19T01:47:54.082Z,10.57
2018-02-19T01:48:28.027Z,9.95
2018-02-19T01:49:01.916Z,9.90
2018-02-19T01:49:35.838Z,9.50
2018-02-19T01:50:15.713Z,8.75
2018-02-19T01:50:49.648Z,9.98
2018-02-19T01:51:23.585Z,9.75
2018-02-19T01:51:57.683Z,9.98
2018-02-19T01:52:31.553Z,10.10
2018-02-19T01:53:05.514Z,9.98
2018-02-19T01:53:39.365Z,9.48
2018-02-19T01:54:13.381Z,8.55
2018-02-19T01:54:47.253Z,9.65
2018-02-19T01:55:21.200Z,9.57
2018-02-19T01:55:55.175Z,8.88
2018-02-19T01:56:29.092Z,8.60
2018-02-19T01:57:02.997Z,9.40
2018-02-19T01:57:36.910Z,8.93
2018-02-19T01:58:10.789Z,9.38
2018-02-19T01:58:44.697Z,8.98
2018-02-19T01:59:18.595Z,8.38
2018-02-19T01:59:52.576Z,8.90
2018-02-19T02:00:26.473Z,9.55
2018-02-19T02:01:00.370Z,9.48
2018-02-19T02:01:34.311Z,10.20
2018-02-19T02:02:08.302Z,9.98
2018-02-19T02:02:42.195Z,9.68
2018-02-19T02:03:16.229Z,9.40
2018-02-19T02:03:50.340Z,9.35
2018-02-19T02:04:24.290Z,8.98
2018-02-19T02:04:58.170Z,9.07
2018-02-19T02:05:32.127Z,9.23
2018-02-19T02:06:06.001Z,9.10
2018-02-19T02:06:39.873Z,8.70
2018-02-19T02:07:13.749Z,9.32
2018-02-19T02:07:47.609Z,9.98
2018-02-19T02:08:21.488Z,9.48
2018-02-19T02:08:55.378Z,9.00
2018-02-19T02:09:29.296Z,9.15
2018-02-19T02:10:03.222Z,9.48
2018-02-19T02:10:37.164Z,10.50
2018-02-19T02:11:11.047Z,9.02
2018-02-19T02:11:44.922Z,9.68
2018-02-19T02:12:18.781Z,9.30
2018-02-19T02:12:52.866Z,9.00
2018-02-19T02:13:26.792Z,10.20
2018-02-19T02:14:00.642Z,10.10
2018-02-19T02:14:34.643Z,9.23
2018-02-19T02:15:08.596Z,9.65
2018-02-19T02:15:42.621Z,9.48
2018-02-19T02:16:16.622Z,9.55
2018-02-19T02:16:50.484Z,9.73
2018-02-19T02:17:24.836Z,10.13
2018-02-19T02:17:58.731Z,8.93
2018-02-19T02:18:32.592Z,9.32
2018-02-19T02:19:06.432Z,9.23
2018-02-19T02:19:40.337Z,8.70
2018-02-19T02:20:14.441Z,9.35
2018-02-19T02:20:48.347Z,8.45
2018-02-19T02:21:22.236Z,9.88
2018-02-19T02:21:56.167Z,9.70
2018-02-19T02:22:30.078Z,9.48
2018-02-19T02:23:03.932Z,9.50
2018-02-19T02:23:37.799Z,9.38
2018-02-19T02:24:11.723Z,10.15
2018-02-19T02:24:45.608Z,10.20
2018-02-19T02:25:19.679Z,9.90
2018-02-19T02:25:53.628Z,9.32
2018-02-19T02:26:27.513Z,9.50
2018-02-19T02:27:01.399Z,9.40
2018-02-19T02:27:35.281Z,10.20
2018-02-19T02:28:09.185Z,9.20
2018-02-19T02:28:43.079Z,9.18
2018-02-19T02:29:17.066Z,8.93
2018-02-19T02:29:50.960Z,10.35
2018-02-19T02:30:24.842Z,9.70
2018-02-19T02:30:59.071Z,9.77
2018-02-19T02:31:32.967Z,10.25
2018-02-19T02:32:06.823Z,9.88
2018-02-19T02:32:40.935Z,10.40
2018-02-19T02:33:14.804Z,10.02
2018-02-19T02:33:48.733Z,8.98
2018-02-19T02:34:22.922Z,10.00
2018-02-19T02:34:56.795Z,10.10
2018-02-19T02:35:30.732Z,9.95
2018-02-19T02:36:04.918Z,9.05
2018-02-19T02:36:38.958Z,9.18
2018-02-19T02:37:13.551Z,10.65
2018-02-19T02:37:47.443Z,10.15
2018-02-19T02:38:21.323Z,10.10
2018-02-19T02:38:55.169Z,9.48
2018-02-19T02:39:29.041Z,10.85
2018-02-19T02:40:02.919Z,9.30
2018-02-19T02:40:36.814Z,9.55
2018-02-19T02:41:10.710Z,10.02
2018-02-19T02:41:44.796Z,9.23
2018-02-19T02:42:18.690Z,11.55
2018-02-19T02:42:52.590Z,11.73
2018-02-19T02:43:26.492Z,10.93
2018-02-19T02:44:00.373Z,11.02
2018-02-19T02:44:34.319Z,9.68
2018-02-19T02:45:08.178Z,9.98
2018-02-19T02:45:42.036Z,9.50
2018-02-19T02:46:15.954Z,9.35
2018-02-19T02:46:49.989Z,10.50
2018-02-19T02:47:24.086Z,9.75
2018-02-19T02:47:57.978Z,10.85
2018-02-19T02:48:31.867Z,9.63
2018-02-19T02:49:05.839Z,10.40
2018-02-19T02:49:39.711Z,9.82
2018-02-19T02:50:13.600Z,9.57
2018-02-19T02:50:47.458Z,9.02
2018-02-19T02:51:21.519Z,10.43
2018-02-19T02:51:55.366Z,10.30
2018-02-19T02:52:29.234Z,10.30
2018-02-19T02:53:03.101Z,10.63
2018-02-19T02:53:37.016Z,10.48
2018-02-19T02:54:10.925Z,9.50
2018-02-19T02:54:44.950Z,10.10
2018-02-19T02:55:18.893Z,10.00
2018-02-19T02:55:52.751Z,9.93
2018-02-19T02:56:26.647Z,11.00
2018-02-19T02:57:00.585Z,9.40
2018-02-19T02:57:34.445Z,10.52
2018-02-19T02:58:08.349Z,9.23
2018-02-19T02:58:42.206Z,11.40
2018-02-19T02:59:16.114Z,10.07
2018-02-19T02:59:50.015Z,10.20
2018-02-19T03:00:23.890Z,10.18
2018-02-19T03:00:57.884Z,10.90
2018-02-19T03:01:31.781Z,10.82
2018-02-19T03:02:05.819Z,10.18
2018-02-19T03:02:39.676Z,10.95
2018-02-19T03:03:13.730Z,10.18
2018-02-19T03:03:47.611Z,10.13
2018-02-19T03:04:21.643Z,9.15
2018-02-19T03:04:55.561Z,10.30
2018-02-19T03:05:29.496Z,10.65
2018-02-19T03:06:03.401Z,10.82
2018-02-19T03:06:37.386Z,10.23
2018-02-19T03:07:11.437Z,10.00
2018-02-19T03:07:45.417Z,10.38
2018-02-19T03:08:19.415Z,9.05
2018-02-19T03:08:53.269Z,11.23
2018-02-19T03:09:27.267Z,11.02
2018-02-19T03:10:01.350Z,10.90
2018-02-19T03:10:35.233Z,9.85
2018-02-19T03:11:09.101Z,11.35
2018-02-19T03:11:43.001Z,9.93
2018-02-19T03:12:16.880Z,9.95
2018-02-19T03:12:50.804Z,10.75
2018-02-19T03:13:24.660Z,10.00
2018-02-19T03:13:58.540Z,11.77
2018-02-19T03:14:32.398Z,10.13
2018-02-19T03:15:06.569Z,10.30
2018-02-19T03:15:40.446Z,10.23
2018-02-19T03:16:14.345Z,11.70
2018-02-19T03:16:48.223Z,11.50
2018-02-19T03:17:22.160Z,10.52
2018-02-19T03:17:56.022Z,10.20
2018-02-19T03:18:29.944Z,10.70
2018-02-19T03:19:03.890Z,10.60
2018-02-19T03:19:37.952Z,10.70
2018-02-19T03:20:12.035Z,11.32
2018-02-19T03:20:45.905Z,11.40
2018-02-19T03:21:19.791Z,11.20
2018-02-19T03:21:53.824Z,11.07
2018-02-19T03:22:27.733Z,10.48
2018-02-19T03:23:01.674Z,11.43
2018-02-19T03:23:35.533Z,11.60
2018-02-19T03:24:09.512Z,10.40
2018-02-19T03:24:43.409Z,11.68
2018-02-19T03:25:17.456Z,11.57
2018-02-19T03:25:51.311Z,11.45
2018-02-19T03:26:25.386Z,10.95
2018-02-19T03:26:59.293Z,10.77
2018-02-19T03:27:33.215Z,10.60
2018-02-19T03:28:07.197Z,11.12
2018-02-19T03:28:41.277Z,10.65
2018-02-19T03:29:15.227Z,11.57
2018-02-19T03:29:49.091Z,10.82
2018-02-19T03:30:23.083Z,11.10
2018-02-19T03:30:56.947Z,10.85
2018-02-19T03:31:30.828Z,9.73
2018-02-19T03:32:04.761Z,11.82
2018-02-19T03:32:38.620Z,11.30
2018-02-19T03:33:12.489Z,11.10
2018-02-19T03:33:46.589Z,11.45
2018-02-19T03:34:20.635Z,11.32
2018-02-19T03:34:54.533Z,10.05
2018-02-19T03:35:28.429Z,11.00
2018-02-19T03:36:02.383Z,10.48
2018-02-19T03:36:36.355Z,12.30
2018-02-19T03:37:10.332Z,10.40
2018-02-19T03:37:44.212Z,11.20
2018-02-19T03:38:18.112Z,11.73
2018-02-19T03:38:51.987Z,11.40
2018-02-19T03:39:25.958Z,11.75
2018-02-19T03:39:59.823Z,11.12
2018-02-19T03:40:33.720Z,11.05
2018-02-19T03:41:07.594Z,10.82
2018-02-19T03:41:41.516Z,11.27
2018-02-19T03:42:15.465Z,12.07
2018-02-19T03:42:49.356Z,12.40
2018-02-19T03:43:23.422Z,10.88
2018-02-19T03:43:57.301Z,11.73
2018-02-19T03:44:31.514Z,10.95
2018-02-19T03:45:05.411Z,11.40
2018-02-19T03:45:39.383Z,11.07
2018-02-19T03:46:13.235Z,11.60
2018-02-19T03:46:47.182Z,12.18
2018-02-19T03:47:21.172Z,11.02
2018-02-19T03:47:55.220Z,11.32
2018-02-19T03:48:29.152Z,11.82
2018-02-19T03:49:03.089Z,11.15
2018-02-19T03:49:36.956Z,11.40
2018-02-19T03:50:10.850Z,11.82
2018-02-19T03:50:44.758Z,10.63
2018-02-19T03:51:18.675Z,10.70
2018-02-19T03:51:52.538Z,11.50
2018-02-19T03:52:26.549Z,11.80
2018-02-19T03:53:00.489Z,11.27
2018-02-19T03:53:34.567Z,11.50
2018-02-19T03:54:08.483Z,11.80
2018-02-19T03:54:42.376Z,11.15
2018-02-19T03:55:16.498Z,11.10
2018-02-19T03:55:50.493Z,11.50
2018-02-19T03:56:24.365Z,11.60
2018-02-19T03:56:58.305Z,11.48
2018-02-19T03:57:32.197Z,11.90
2018-02-19T03:58:06.196Z,12.48
2018-02-19T03:58:40.066Z,12.15
2018-02-19T03:59:13.946Z,12.13
2018-02-19T03:59:47.998Z,12.37
2018-02-19T04:00:21.875Z,11.55
2018-02-19T04:00:55.746Z,11.75
2018-02-19T04:01:29.663Z,11.32
2018-02-19T04:02:03.624Z,11.50
2018-02-19T04:02:37.656Z,12.48
2018-02-19T04:03:11.566Z,11.77
2018-02-19T04:03:45.533Z,13.30
2018-02-19T04:04:19.446Z,13.52
2018-02-19T04:04:53.388Z,12.00
2018-02-19T04:05:27.495Z,12.05
2018-02-19T04:06:01.597Z,11.77
2018-02-19T04:06:35.548Z,12.57
2018-02-19T04:07:09.455Z,11.73
2018-02-19T04:07:43.487Z,12.65
2018-02-19T04:08:17.386Z,11.18
2018-02-19T04:08:51.465Z,12.80
2018-02-19T04:09:25.314Z,12.15
2018-02-19T04:09:59.313Z,11.70
2018-02-19T04:10:33.174Z,11.95
2018-02-19T04:11:07.065Z,11.75
2018-02-19T04:11:41.008Z,11.02
2018-02-19T04:12:15.206Z,12.05
2018-02-19T04:12:49.202Z,12.27
2018-02-19T04:13:23.069Z,11.43
2018-02-19T04:13:56.963Z,11.95
2018-02-19T04:14:30.941Z,13.52
2018-02-19T04:15:04.834Z,11.52
2018-02-19T04:15:38.886Z,11.65
2018-02-19T04:16:12.791Z,12.02
2018-02-19T04:16:46.661Z,11.98
2018-02-19T04:17:20.514Z,12.18
2018-02-19T04:17:54.437Z,11.80
2018-02-19T04:18:28.403Z,12.93
2018-02-19T04:19:02.398Z,11.82
2018-02-19T04:19:36.297Z,12.15
2018-02-19T04:20:10.296Z,12.23
2018-02-19T04:20:44.193Z,12.35
2018-02-19T04:21:18.096Z,11.60
2018-02-19T04:21:52.299Z,12.48
2018-02-19T04:22:26.173Z,11.68
2018-02-19T04:23:00.076Z,13.43
2018-02-19T04:23:34.240Z,11.85
2018-02-19T04:24:08.113Z,12.13
2018-02-19T04:24:42.088Z,11.40
2018-02-19T04:25:16.085Z,13.10
2018-02-19T04:25:50.144Z,11.02
2018-02-19T04:26:24.023Z,11.95
2018-02-19T04:26:57.916Z,12.30
2018-02-19T04:27:31.795Z,12.05
2018-02-19T04:28:05.707Z,11.18
2018-02-19T04:28:39.814Z,11.12
2018-02-19T04:29:13.876Z,12.65
2018-02-19T04:29:47.953Z,11.88
2018-02-19T04:30:21.855Z,11.48
2018-02-19T04:30:55.814Z,11.77
2018-02-19T04:31:29.708Z,12.18
2018-02-19T04:32:03.727Z,11.90
2018-02-19T04:32:37.658Z,11.55
2018-02-19T04:33:11.587Z,11.40
2018-02-19T04:33:45.476Z,11.50
2018-02-19T04:34:19.385Z,12.23
2018-02-19T04:34:53.298Z,11.15
2018-02-19T04:35:27.201Z,11.27
2018-02-19T04:36:01.092Z,12.00
2018-02-19T04:36:34.954Z,11.85
2018-02-19T04:37:08.835Z,11.77
2018-02-19T04:37:42.837Z,11.75
2018-02-19T04:38:16.780Z,12.25
2018-02-19T04:38:50.669Z,13.48
2018-02-19T04:39:25.180Z,11.75
2018-02-19T04:39:59.459Z,11.85
2018-02-19T04:40:33.346Z,12.85
2018-02-19T04:41:07.272Z,11.00
2018-02-19T04:41:41.262Z,12.02
2018-02-19T04:42:15.122Z,11.82
2018-02-19T04:43:08.808Z,11.88
2018-02-19T04:43:42.731Z,12.32
2018-02-19T04:44:31.469Z,11.85
2018-02-19T04:45:21.278Z,12.40
2018-02-19T04:45:55.875Z,11.32
2018-02-19T04:46:45.176Z,12.07
2018-02-19T04:47:19.073Z,11.65
2018-02-19T04:47:53.026Z,13.15
2018-02-19T04:48:27.077Z,11.60
2018-02-19T04:49:01.045Z,11.80
2018-02-19T04:49:35.013Z,11.98
2018-02-19T04:50:09.084Z,12.52
2018-02-19T04:50:42.963Z,12.37
2018-02-19T04:51:16.819Z,12.37
2018-02-19T04:51:50.737Z,11.32
2018-02-19T04:52:24.652Z,12.75
2018-02-19T04:52:58.546Z,13.90
2018-02-19T04:53:32.433Z,12.68
2018-02-19T04:54:06.403Z,12.82
2018-02-19T04:54:40.285Z,12.27
2018-02-19T04:55:14.239Z,12.25
2018-02-19T04:55:48.358Z,12.43
2018-02-19T04:56:22.239Z,13.00
2018-02-19T04:56:56.349Z,12.27
2018-02-19T04:57:30.320Z,11.88
2018-02-19T04:58:04.448Z,12.00
2018-02-19T04:58:38.529Z,13.65
2018-02-19T04:59:12.622Z,11.98
2018-02-19T04:59:46.626Z,13.90
2018-02-19T05:00:20.509Z,12.37
2018-02-19T05:00:54.433Z,11.75
2018-02-19T05:01:28.392Z,12.60
2018-02-19T05:02:02.426Z,12.40
2018-02-19T05:02:36.414Z,12.90
2018-02-19T05:03:10.346Z,12.05
2018-02-19T05:03:44.294Z,13.48
2018-02-19T05:04:18.597Z,15.65
2018-02-19T05:04:52.640Z,13.13
2018-02-19T05:05:26.496Z,14.65
2018-02-19T05:06:00.405Z,12.45
2018-02-19T05:06:34.564Z,13.35
2018-02-19T05:07:08.457Z,12.10
2018-02-19T05:07:42.366Z,12.45
2018-02-19T05:08:16.273Z,11.75
2018-02-19T05:08:50.142Z,12.32
2018-02-19T05:09:24.081Z,13.48
2018-02-19T05:09:57.974Z,13.15
2018-02-19T05:10:31.881Z,12.88
2018-02-19T05:11:05.768Z,12.48
2018-02-19T05:11:39.659Z,12.93
2018-02-19T05:12:13.846Z,13.40
2018-02-19T05:12:47.979Z,12.68
2018-02-19T05:13:21.855Z,12.55
2018-02-19T05:13:55.749Z,12.70
2018-02-19T05:14:29.654Z,13.07
2018-02-19T05:15:03.637Z,12.65
2018-02-19T05:15:37.512Z,14.87
2018-02-19T05:16:11.405Z,13.30
2018-02-19T05:16:45.298Z,14.00
2018-02-19T05:17:19.295Z,12.00
2018-02-19T05:17:53.263Z,13.90
2018-02-19T05:18:27.132Z,12.88
2018-02-19T05:19:01.004Z,13.55
2018-02-19T05:19:34.925Z,13.27
2018-02-19T05:20:08.805Z,12.82
2018-02-19T05:20:42.664Z,13.15
2018-02-19T05:21:16.690Z,12.70
2018-02-19T05:21:50.561Z,12.27
2018-02-19T05:22:24.653Z,12.82
2018-02-19T05:22:59.008Z,12.80
2018-02-19T05:23:32.890Z,14.25
2018-02-19T05:24:06.753Z,13.30
2018-02-19T05:24:40.630Z,12.40
2018-02-19T05:25:14.675Z,13.90
2018-02-19T05:25:48.573Z,12.70
2018-02-19T05:26:22.459Z,13.32
2018-02-19T05:26:56.329Z,13.52
2018-02-19T05:27:30.212Z,13.70
2018-02-19T05:28:04.365Z,12.23
2018-02-19T05:28:38.224Z,13.48
2018-02-19T05:29:12.118Z,14.60
2018-02-19T05:29:46.018Z,12.68
2018-02-19T05:30:19.905Z,12.88
2018-02-19T05:30:53.878Z,13.10
2018-02-19T05:31:27.749Z,13.40
2018-02-19T05:32:01.658Z,13.27
2018-02-19T05:32:35.703Z,13.05
2018-02-19T05:33:09.742Z,13.43
2018-02-19T05:33:43.719Z,12.80
2018-02-19T05:34:17.664Z,12.75
2018-02-19T05:34:51.666Z,13.62
2018-02-19T05:35:25.591Z,15.13
2018-02-19T05:35:59.489Z,15.15
2018-02-19T05:36:33.361Z,13.65
2018-02-19T05:37:07.385Z,12.35
2018-02-19T05:37:41.350Z,13.65
2018-02-19T05:38:15.292Z,13.05
2018-02-19T05:38:49.353Z,12.45
2018-02-19T05:39:23.297Z,14.20
2018-02-19T05:39:57.230Z,14.07
2018-02-19T05:40:31.101Z,13.73
2018-02-19T05:41:04.980Z,14.25
2018-02-19T05:41:38.860Z,13.50
2018-02-19T05:42:12.737Z,14.32
2018-02-19T05:42:46.804Z,13.30
2018-02-19T05:43:20.929Z,13.35
2018-02-19T05:43:55.055Z,13.60
2018-02-19T05:44:29.014Z,14.05
2018-02-19T05:45:02.972Z,14.98
2018-02-19T05:45:36.885Z,14.25
2018-02-19T05:46:10.784Z,13.02
2018-02-19T05:46:44.706Z,13.30
2018-02-19T05:47:18.568Z,12.80
2018-02-19T05:47:52.509Z,14.32
2018-02-19T05:48:26.418Z,13.20
2018-02-19T05:49:00.293Z,13.32
2018-02-19T05:49:34.469Z,13.77
2018-02-19T05:50:08.433Z,12.75
2018-02-19T05:50:42.296Z,13.07
2018-02-19T05:51:16.203Z,12.77
2018-02-19T05:51:50.096Z,13.23
2018-02-19T05:52:24.047Z,13.82
2018-02-19T05:52:57.914Z,13.40
2018-02-19T05:53:31.905Z,12.20
2018-02-19T05:54:06.034Z,13.73
2018-02-19T05:54:39.915Z,12.60
2018-02-19T05:55:14.058Z,13.95
2018-02-19T05:55:47.948Z,14.70
2018-02-19T05:56:21.974Z,15.35
2018-02-19T05:56:55.895Z,14.50
2018-02-19T05:57:29.778Z,14.38
2018-02-19T05:58:03.663Z,12.75
2018-02-19T05:58:37.527Z,13.05
2018-02-19T05:59:11.475Z,13.80
2018-02-19T05:59:45.396Z,13.60
2018-02-19T06:00:19.330Z,13.50
2018-02-19T06:00:53.182Z,11.98
2018-02-19T06:01:27.570Z,13.95
2018-02-19T06:02:01.550Z,12.68
2018-02-19T06:02:35.422Z,13.73
2018-02-19T06:03:09.275Z,13.70
2018-02-19T06:03:43.199Z,12.70
2018-02-19T06:04:17.086Z,13.95
2018-02-19T06:04:51.182Z,13.60
2018-02-19T06:05:25.144Z,13.40
2018-02-19T06:05:59.391Z,13.65
2018-02-19T06:06:33.542Z,13.45
2018-02-19T06:07:07.502Z,14.02
2018-02-19T06:07:41.375Z,13.85
2018-02-19T06:08:15.266Z,14.27
2018-02-19T06:08:49.329Z,14.32
2018-02-19T06:09:23.341Z,13.68
2018-02-19T06:09:57.272Z,14.38
2018-02-19T06:10:31.222Z,14.00
2018-02-19T06:11:05.247Z,14.40
2018-02-19T06:11:39.245Z,13.55
2018-02-19T06:12:13.325Z,13.55
2018-02-19T06:12:47.312Z,13.60
2018-02-19T06:13:21.255Z,13.75
2018-02-19T06:13:55.140Z,13.77
2018-02-19T06:14:29.012Z,13.88
2018-02-19T06:15:02.972Z,14.87
2018-02-19T06:15:38.666Z,15.32
2018-02-19T06:16:12.662Z,13.62
2018-02-19T06:16:46.631Z,14.82
2018-02-19T06:17:20.694Z,15.25
2018-02-19T06:17:54.631Z,13.85
2018-02-19T06:18:28.544Z,14.13
2018-02-19T06:19:02.447Z,14.38
2018-02-19T06:19:36.312Z,14.02
2018-02-19T06:20:10.283Z,14.18
2018-02-19T06:20:44.222Z,15.65
2018-02-19T06:21:18.276Z,14.38
2018-02-19T06:21:52.179Z,14.05
2018-02-19T06:22:26.281Z,13.55
2018-02-19T06:23:00.214Z,13.65
2018-02-19T06:23:34.205Z,14.80
2018-02-19T06:24:08.126Z,12.63
2018-02-19T06:24:42.079Z,13.07
2018-02-19T06:25:16.128Z,15.50
2018-02-19T06:25:50.125Z,13.80
2018-02-19T06:26:24.229Z,14.15
2018-02-19T06:26:58.153Z,14.38
2018-02-19T06:27:32.049Z,13.88
2018-02-19T06:28:05.985Z,14.00
2018-02-19T06:28:39.948Z,13.02
2018-02-19T06:29:13.955Z,13.75
2018-02-19T06:29:47.982Z,14.65
2018-02-19T06:30:21.934Z,13.45
2018-02-19T06:30:55.874Z,14.40
2018-02-19T06:31:29.739Z,13.82
2018-02-19T06:32:03.722Z,14.87
2018-02-19T06:32:37.597Z,14.57
2018-02-19T06:33:11.721Z,13.82
2018-02-19T06:33:45.771Z,14.25
2018-02-19T06:34:19.707Z,14.43
2018-02-19T06:34:53.712Z,14.32
2018-02-19T06:35:30.427Z,12.95
2018-02-19T06:36:04.767Z,14.68
2018-02-19T06:36:38.733Z,14.73
2018-02-19T06:37:12.980Z,14.50
2018-02-19T06:37:46.908Z,13.65
2018-02-19T06:38:21.116Z,14.10
2018-02-19T06:38:55.107Z,15.40
2018-02-19T06:39:29.771Z,13.93
2018-02-19T06:40:03.700Z,13.95
2018-02-19T06:40:38.176Z,15.07
2018-02-19T06:41:12.194Z,15.27
2018-02-19T06:41:46.416Z,14.90
2018-02-19T06:42:20.276Z,14.95
2018-02-19T06:42:54.164Z,14.45
2018-02-19T06:43:28.063Z,14.80
2018-02-19T06:44:02.156Z,15.35
2018-02-19T06:44:36.201Z,14.40
2018-02-19T06:45:10.087Z,13.95
2018-02-19T06:45:44.045Z,14.77
2018-02-19T06:46:17.991Z,14.82
2018-02-19T06:46:51.915Z,15.07
2018-02-19T06:47:25.777Z,14.02
2018-02-19T06:47:59.657Z,15.15
2018-02-19T06:48:33.664Z,14.32
2018-02-19T06:49:07.549Z,14.05
2018-02-19T06:49:41.468Z,15.73
2018-02-19T06:50:15.344Z,14.48
2018-02-19T06:50:49.464Z,15.00
2018-02-19T06:51:23.493Z,15.00
2018-02-19T06:51:57.640Z,15.52
2018-02-19T06:52:31.639Z,14.77
2018-02-19T06:53:05.686Z,16.70
2018-02-19T06:53:39.751Z,15.30
2018-02-19T06:54:13.654Z,15.35
2018-02-19T06:54:47.773Z,15.52
2018-02-19T06:55:21.689Z,16.33
2018-02-19T06:55:55.641Z,15.18
2018-02-19T06:56:29.660Z,15.80
2018-02-19T06:57:03.591Z,14.25
2018-02-19T06:57:37.485Z,16.25
2018-02-19T06:58:11.373Z,15.70
2018-02-19T06:58:45.543Z,14.60
2018-02-19T06:59:19.491Z,16.50
2018-02-19T06:59:54.430Z,15.75
2018-02-19T07:00:28.642Z,16.20
2018-02-19T07:01:02.534Z,16.15
2018-02-19T07:01:36.747Z,16.15
2018-02-19T07:02:10.673Z,14.45
2018-02-19T07:02:44.554Z,14.63
2018-02-19T07:03:18.612Z,16.27
2018-02-19T07:03:52.506Z,14.80
2018-02-19T07:04:26.502Z,16.05
2018-02-19T07:05:00.719Z,14.50
2018-02-19T07:05:34.814Z,14.98
2018-02-19T07:06:08.693Z,15.98
2018-02-19T07:06:42.729Z,15.70
2018-02-19T07:07:16.701Z,15.25
2018-02-19T07:07:50.710Z,15.55
2018-02-19T07:08:25.005Z,16.27
2018-02-19T07:08:58.914Z,15.73
2018-02-19T07:09:32.777Z,15.75
2018-02-19T07:10:06.702Z,16.00
2018-02-19T07:10:40.597Z,15.35
2018-02-19T07:11:14.490Z,15.05
2018-02-19T07:11:48.390Z,15.82
2018-02-19T07:12:22.266Z,15.25
2018-02-19T07:12:56.165Z,15.02
2018-02-19T07:13:30.135Z,15.27
2018-02-19T07:14:04.304Z,14.48
2018-02-19T07:14:38.276Z,14.73
2018-02-19T07:15:12.367Z,13.95
2018-02-19T07:15:46.258Z,15.25
2018-02-19T07:16:20.209Z,15.75
2018-02-19T07:16:54.130Z,15.52
2018-02-19T07:17:28.083Z,17.92
2018-02-19T07:18:02.220Z,15.82
2018-02-19T07:18:36.290Z,14.50
2018-02-19T07:19:10.159Z,17.15
2018-02-19T07:19:44.019Z,15.43
2018-02-19T07:20:18.038Z,14.40
2018-02-19T07:20:52.235Z,16.05
2018-02-19T07:21:26.119Z,15.43
2018-02-19T07:22:00.027Z,15.70
2018-02-19T07:22:35.629Z,15.90
2018-02-19T07:23:09.553Z,16.00